createdAt,value
2023-03-24T00:00:45.922Z,17.35
2023-03-24T00:03:17.007Z,18.50
2023-03-24T00:05:45.050Z,17.42
2023-03-24T00:08:12.366Z,15.00
2023-03-24T00:10:40.539Z,17.38
2023-03-24T00:13:07.792Z,16.60
2023-03-24T00:15:36.391Z,15.63
2023-03-24T00:18:04.579Z,15.65
2023-03-24T00:20:33.067Z,17.35
2023-03-24T00:23:00.405Z,13.70
2023-03-24T00:25:33.968Z,13.68
2023-03-24T00:28:01.522Z,14.37
2023-03-24T00:30:29.321Z,13.82
2023-03-24T00:32:59.261Z,11.73
2023-03-24T00:35:26.705Z,12.00
2023-03-24T00:37:54.294Z,12.30
2023-03-24T00:40:22.438Z,11.88
2023-03-24T00:42:50.880Z,11.38
2023-03-24T00:45:23.217Z,12.43
2023-03-24T00:47:54.642Z,11.52
2023-03-24T00:50:26.706Z,12.75
2023-03-24T00:52:56.420Z,12.85
2023-03-24T00:55:23.939Z,12.25
2023-03-24T00:57:51.572Z,11.40
2023-03-24T01:00:24.428Z,12.07
2023-03-24T01:02:57.837Z,12.13
2023-03-24T01:05:28.474Z,11.05
2023-03-24T01:08:03.849Z,11.27
2023-03-24T01:10:42.620Z,10.77
2023-03-24T01:13:10.481Z,10.65
2023-03-24T01:15:38.433Z,10.15
2023-03-24T01:18:06.681Z,15.73
2023-03-24T01:20:34.276Z,14.82
2023-03-24T01:23:05.691Z,15.40
2023-03-24T01:25:36.373Z,14.57
2023-03-24T01:28:04.388Z,13.02
2023-03-24T01:30:32.262Z,12.82
2023-03-24T01:33:05.762Z,11.88
2023-03-24T01:35:58.221Z,13.13
2023-03-24T01:38:25.697Z,12.85
2023-03-24T01:41:02.265Z,14.50
2023-03-24T01:43:42.013Z,13.93
2023-03-24T01:46:27.986Z,12.35
2023-03-24T01:49:13.159Z,11.05
2023-03-24T01:51:50.241Z,10.00
2023-03-24T01:54:30.905Z,9.77
2023-03-24T01:57:16.287Z,10.73
2023-03-24T02:00:14.894Z,9.57
2023-03-24T02:03:04.889Z,11.73
2023-03-24T02:05:57.870Z,11.32
2023-03-24T02:08:48.430Z,9.18
2023-03-24T02:11:16.591Z,9.77
2023-03-24T02:13:51.493Z,10.23
2023-03-24T02:16:27.757Z,13.25
2023-03-24T02:19:04.482Z,13.02
2023-03-24T02:21:50.516Z,12.48
2023-03-24T02:24:33.165Z,11.27
2023-03-24T02:27:30.108Z,13.10
2023-03-24T02:30:35.945Z,13.00
2023-03-24T02:33:20.923Z,11.00
2023-03-24T02:35:57.054Z,10.55
2023-03-24T02:38:34.577Z,10.50
2023-03-24T02:41:17.174Z,9.65
2023-03-24T02:43:50.416Z,9.52
2023-03-24T02:46:47.438Z,9.00
2023-03-24T02:49:36.889Z,9.23
2023-03-24T02:52:34.654Z,10.48
2023-03-24T02:55:19.197Z,10.82
2023-03-24T02:57:57.528Z,12.77
2023-03-24T03:00:59.584Z,12.88
2023-03-24T03:03:55.741Z,13.80
2023-03-24T03:06:31.430Z,13.10
2023-03-24T03:09:04.382Z,10.68
2023-03-24T03:11:31.856Z,10.73
2023-03-24T03:14:11.657Z,12.32
2023-03-24T03:16:53.678Z,13.13
2023-03-24T03:19:28.343Z,13.10
2023-03-24T03:21:58.857Z,12.20
2023-03-24T03:24:37.454Z,11.95
2023-03-24T03:27:09.639Z,12.77
2023-03-24T03:29:40.587Z,12.88
2023-03-24T03:32:11.104Z,12.77
2023-03-24T03:35:05.283Z,14.18
2023-03-24T03:37:35.605Z,13.03
2023-03-24T03:40:19.893Z,12.50
2023-03-24T03:42:52.840Z,13.23
2023-03-24T03:45:20.389Z,12.93
2023-03-24T03:47:48.393Z,12.80
2023-03-24T03:50:16.178Z,13.10
2023-03-24T03:52:44.786Z,12.10
2023-03-24T03:55:13.768Z,11.05
2023-03-24T03:57:43.500Z,9.57
2023-03-24T04:00:24.724Z,10.70
2023-03-24T04:03:37.218Z,10.60
2023-03-24T04:06:14.680Z,12.60
2023-03-24T04:08:53.469Z,13.50
2023-03-24T04:11:50.781Z,13.23
2023-03-24T04:15:08.360Z,14.20
2023-03-24T04:18:03.086Z,14.10
2023-03-24T04:21:02.400Z,14.02
2023-03-24T04:23:44.694Z,13.85
2023-03-24T04:26:34.720Z,15.43
2023-03-24T04:29:09.947Z,16.63
2023-03-24T04:31:54.237Z,15.85
2023-03-24T04:34:29.444Z,15.18
2023-03-24T04:37:12.645Z,13.02
2023-03-24T04:40:01.330Z,13.02
2023-03-24T04:42:46.819Z,14.40
2023-03-24T04:45:17.122Z,10.13
2023-03-24T04:48:23.160Z,13.63
2023-03-24T04:54:08.826Z,13.80
2023-03-24T04:56:49.002Z,14.93
2023-03-24T04:59:34.002Z,15.05
2023-03-24T05:02:03.496Z,14.05
2023-03-24T05:04:40.134Z,13.23
2023-03-24T05:07:21.479Z,14.00
2023-03-24T05:09:52.455Z,18.55
2023-03-24T05:12:20.138Z,19.13
2023-03-24T05:15:07.079Z,20.73
2023-03-24T05:17:36.210Z,20.23
2023-03-24T05:20:10.680Z,19.50
2023-03-24T05:22:40.041Z,19.40
2023-03-24T05:25:08.687Z,19.92
2023-03-24T05:27:36.170Z,17.80
2023-03-24T05:30:17.591Z,17.30
2023-03-24T05:32:47.127Z,17.85
2023-03-24T05:35:15.115Z,16.23
2023-03-24T05:37:43.816Z,15.32
2023-03-24T05:40:12.540Z,15.48
2023-03-24T05:42:53.674Z,17.27
2023-03-24T05:45:25.477Z,19.67
2023-03-24T05:47:53.724Z,22.30
2023-03-24T05:50:29.479Z,24.17
2023-03-24T05:52:57.393Z,25.25
2023-03-24T05:55:49.648Z,26.77
2023-03-24T05:58:39.265Z,23.17
2023-03-24T06:01:08.945Z,22.45
2023-03-24T06:03:41.482Z,20.70
2023-03-24T06:06:14.978Z,19.20
2023-03-24T06:08:45.235Z,18.08
2023-03-24T06:11:14.135Z,16.83
2023-03-24T06:13:52.331Z,16.70
2023-03-24T06:16:24.075Z,17.65
2023-03-24T06:18:57.525Z,16.38
2023-03-24T06:22:03.318Z,15.77
2023-03-24T06:24:37.802Z,16.75
2023-03-24T06:27:09.358Z,15.02
2023-03-24T06:29:37.516Z,14.98
2023-03-24T06:32:08.154Z,14.68
2023-03-24T06:34:41.809Z,14.30
2023-03-24T06:37:16.798Z,14.27
2023-03-24T06:39:45.380Z,14.48
2023-03-24T06:42:14.812Z,14.32
2023-03-24T06:44:42.506Z,12.80
2023-03-24T06:47:09.995Z,12.70
2023-03-24T06:49:37.536Z,12.23
2023-03-24T06:52:05.389Z,11.07
2023-03-24T06:54:36.846Z,11.82
2023-03-24T06:57:04.959Z,11.88
2023-03-24T06:59:53.045Z,11.80
2023-03-24T07:02:21.454Z,11.63
2023-03-24T07:04:54.183Z,12.13
2023-03-24T07:10:30.118Z,10.82
2023-03-24T07:12:57.770Z,11.35
2023-03-24T07:15:25.711Z,10.73
2023-03-24T07:17:54.671Z,10.23
2023-03-24T07:20:35.918Z,11.88
2023-03-24T07:23:17.530Z,11.55
2023-03-24T07:26:03.296Z,10.75
2023-03-24T07:28:49.482Z,10.15
2023-03-24T07:31:38.293Z,10.95
2023-03-24T07:34:09.179Z,11.13
2023-03-24T07:36:39.207Z,12.23
2023-03-24T07:39:11.046Z,12.35
2023-03-24T07:41:38.516Z,11.02
2023-03-24T07:44:14.684Z,12.23
2023-03-24T07:46:49.590Z,11.32
2023-03-24T07:49:19.955Z,13.68
2023-03-24T07:52:13.942Z,13.57
2023-03-24T07:54:44.979Z,12.52
2023-03-24T07:57:26.359Z,13.55
2023-03-24T07:59:53.761Z,13.93
2023-03-24T08:02:44.437Z,13.02
2023-03-24T08:05:38.719Z,13.00
2023-03-24T08:08:32.826Z,11.70
2023-03-24T08:11:00.670Z,10.32
2023-03-24T08:13:28.720Z,11.38
2023-03-24T08:15:56.517Z,12.52
2023-03-24T08:18:25.297Z,11.05
2023-03-24T08:20:57.813Z,11.10
2023-03-24T08:23:25.850Z,11.25
2023-03-24T08:25:53.253Z,10.07
2023-03-24T08:28:20.760Z,9.55
2023-03-24T08:30:48.622Z,8.82
2023-03-24T08:33:16.682Z,9.38
2023-03-24T08:35:46.408Z,9.65
2023-03-24T08:38:16.836Z,9.93
2023-03-24T08:40:45.616Z,9.88
2023-03-24T08:43:15.620Z,8.55
2023-03-24T08:45:43.399Z,8.85
2023-03-24T08:48:11.233Z,9.02
2023-03-24T08:50:41.797Z,8.27
2023-03-24T08:53:11.702Z,8.57
2023-03-24T08:55:41.971Z,8.23
2023-03-24T08:58:14.562Z,8.40
2023-03-24T09:00:44.280Z,7.68
2023-03-24T09:03:18.753Z,8.02
2023-03-24T09:05:47.589Z,8.35
2023-03-24T09:08:17.177Z,7.80
2023-03-24T09:10:47.021Z,8.10
2023-03-24T09:13:15.445Z,7.47
2023-03-24T09:15:52.059Z,7.93
2023-03-24T09:18:21.345Z,7.82
2023-03-24T09:20:49.666Z,7.43
2023-03-24T09:23:20.342Z,7.80
2023-03-24T09:25:54.039Z,7.50
2023-03-24T09:28:22.522Z,7.07
2023-03-24T09:30:50.374Z,6.57
2023-03-24T09:33:17.955Z,7.15
2023-03-24T09:35:45.280Z,6.28
2023-03-24T09:38:12.636Z,6.63
2023-03-24T09:40:40.819Z,6.95
2023-03-24T09:43:42.708Z,6.85
2023-03-24T09:46:20.768Z,6.30
2023-03-24T09:49:00.502Z,6.00
2023-03-24T09:51:40.986Z,5.95
2023-03-24T09:54:08.259Z,7.03
2023-03-24T09:56:42.724Z,6.35
2023-03-24T10:01:48.700Z,6.22
2023-03-24T10:04:19.611Z,5.13
2023-03-24T10:06:53.080Z,5.07
2023-03-24T10:09:27.333Z,4.80
2023-03-24T10:12:15.905Z,4.78
2023-03-24T10:14:52.077Z,4.00
2023-03-24T10:17:37.772Z,4.40
2023-03-24T10:20:29.938Z,3.83
2023-03-24T10:23:34.576Z,4.20
2023-03-24T10:26:26.583Z,4.03
2023-03-24T10:29:13.804Z,4.55
2023-03-24T10:31:43.109Z,4.30
2023-03-24T10:34:12.640Z,4.55
2023-03-24T10:36:41.255Z,5.00
2023-03-24T10:39:20.017Z,3.45
2023-03-24T10:41:51.795Z,3.22
2023-03-24T10:44:19.458Z,3.63
2023-03-24T10:46:51.102Z,4.22
2023-03-24T10:49:23.723Z,4.10
2023-03-24T10:51:54.222Z,3.95
2023-03-24T10:54:22.099Z,3.78
2023-03-24T10:57:06.663Z,3.80
2023-03-24T10:59:40.832Z,4.13
2023-03-24T11:04:53.067Z,5.07
2023-03-24T11:07:22.827Z,4.47
2023-03-24T11:10:02.212Z,4.78
2023-03-24T11:12:32.827Z,5.07
2023-03-24T11:15:22.142Z,4.43
2023-03-24T11:18:16.590Z,4.43
2023-03-24T11:20:50.950Z,3.83
2023-03-24T11:23:26.200Z,4.00
2023-03-24T11:26:07.570Z,4.10
2023-03-24T11:28:53.531Z,4.38
2023-03-24T11:31:26.888Z,4.15
2023-03-24T11:34:01.430Z,4.00
2023-03-24T11:39:12.752Z,3.30
2023-03-24T11:41:59.600Z,3.30
2023-03-24T11:44:27.151Z,3.60
2023-03-24T11:47:02.552Z,3.80
2023-03-24T11:49:34.044Z,3.20
2023-03-24T11:52:03.624Z,3.25
2023-03-24T11:54:36.614Z,3.67
2023-03-24T11:57:10.772Z,3.92
2023-03-24T11:59:41.816Z,3.22
2023-03-24T12:02:10.639Z,3.72
2023-03-24T12:05:05.492Z,2.72
2023-03-24T12:08:11.460Z,2.90
2023-03-24T12:10:50.539Z,2.53
2023-03-24T12:13:46.035Z,2.70
2023-03-24T12:16:24.058Z,2.80
2023-03-24T12:19:11.888Z,3.42
2023-03-24T12:21:41.842Z,3.50
2023-03-24T12:24:27.585Z,2.80
2023-03-24T12:27:00.891Z,3.22
2023-03-24T12:29:43.231Z,2.70
2023-03-24T12:32:13.595Z,4.55
2023-03-24T12:34:42.529Z,5.55
2023-03-24T12:37:15.798Z,4.03
2023-03-24T12:40:06.779Z,3.65
2023-03-24T12:42:40.729Z,3.67
2023-03-24T12:45:19.780Z,2.70
2023-03-24T12:48:31.998Z,4.68
2023-03-24T12:51:08.079Z,4.05
2023-03-24T12:53:44.982Z,2.50
2023-03-24T12:56:21.188Z,2.55
2023-03-24T12:58:54.014Z,3.60
2023-03-24T13:01:29.582Z,2.60
2023-03-24T13:04:16.820Z,2.40
2023-03-24T13:06:50.317Z,3.17
2023-03-24T13:09:25.739Z,2.25
2023-03-24T13:12:22.578Z,2.78
2023-03-24T13:15:16.415Z,2.60
2023-03-24T13:17:49.889Z,1.88
2023-03-24T13:20:42.413Z,1.42
2023-03-24T13:23:35.450Z,1.80
2023-03-24T13:26:06.474Z,2.75
2023-03-24T13:29:05.925Z,1.35
2023-03-24T13:31:41.257Z,1.10
2023-03-24T13:34:34.550Z,1.20
2023-03-24T13:37:16.378Z,3.55
2023-03-24T13:39:46.278Z,1.88
2023-03-24T13:42:34.728Z,1.15
2023-03-24T13:45:06.304Z,1.45
2023-03-24T13:47:57.718Z,2.25
2023-03-24T13:50:26.216Z,1.55
2023-03-24T13:52:54.297Z,3.85
2023-03-24T13:55:30.941Z,1.25
2023-03-24T13:58:10.778Z,1.23
2023-03-24T14:01:05.861Z,1.20
2023-03-24T14:03:34.597Z,1.27
2023-03-24T14:06:05.439Z,1.40
2023-03-24T14:08:41.944Z,1.30
2023-03-24T14:11:49.681Z,1.50
2023-03-24T14:14:19.691Z,1.35
2023-03-24T14:17:08.235Z,1.30
2023-03-24T14:20:09.861Z,1.92
2023-03-24T14:22:49.897Z,3.00
2023-03-24T14:25:17.126Z,3.45
2023-03-24T14:27:46.628Z,2.63
2023-03-24T14:30:38.112Z,2.53
2023-03-24T14:33:05.761Z,2.08
2023-03-24T14:35:33.097Z,3.72
2023-03-24T14:38:04.774Z,1.67
2023-03-24T14:40:42.053Z,1.23
2023-03-24T14:43:26.316Z,1.30
2023-03-24T14:46:01.431Z,2.80
2023-03-24T14:48:32.016Z,3.72
2023-03-24T14:51:07.281Z,1.80
2023-03-24T14:53:37.534Z,1.45
2023-03-24T14:56:08.082Z,1.80
2023-03-24T14:58:41.595Z,1.73
2023-03-24T15:01:11.161Z,1.70
2023-03-24T15:03:52.553Z,2.55
2023-03-24T15:06:23.646Z,3.40
2023-03-24T15:08:53.613Z,1.20
2023-03-24T15:11:33.657Z,2.83
2023-03-24T15:14:03.701Z,1.40
2023-03-24T15:16:38.685Z,1.88
2023-03-24T15:19:17.780Z,3.30
2023-03-24T15:21:59.016Z,4.80
2023-03-24T15:24:30.860Z,3.92
2023-03-24T15:27:07.504Z,3.65
2023-03-24T15:29:42.786Z,4.07
2023-03-24T15:32:22.092Z,2.75
2023-03-24T15:34:52.100Z,3.72
2023-03-24T15:37:23.861Z,3.47
2023-03-24T15:39:59.225Z,4.00
2023-03-24T15:42:33.438Z,3.55
2023-03-24T15:45:11.942Z,3.70
2023-03-24T15:47:42.347Z,4.82
2023-03-24T15:50:39.260Z,4.45
2023-03-24T15:53:16.144Z,4.10
2023-03-24T15:55:46.513Z,5.80
2023-03-24T15:58:28.935Z,4.45
2023-03-24T16:01:00.112Z,3.17
2023-03-24T16:03:30.357Z,4.43
2023-03-24T16:05:58.197Z,4.65
2023-03-24T16:08:30.826Z,4.57
2023-03-24T16:11:07.108Z,3.47
2023-03-24T16:13:35.049Z,3.97
2023-03-24T16:16:14.225Z,3.28
2023-03-24T16:18:47.183Z,3.85
2023-03-24T16:21:28.909Z,4.40
2023-03-24T16:23:58.273Z,3.72
2023-03-24T16:26:28.590Z,4.05
2023-03-24T16:29:16.877Z,3.80
2023-03-24T16:31:49.171Z,3.47
2023-03-24T16:34:21.114Z,4.50
2023-03-24T16:36:50.109Z,4.50
2023-03-24T16:39:23.144Z,3.40
2023-03-24T16:41:50.560Z,3.80
2023-03-24T16:44:17.945Z,3.95
2023-03-24T16:46:46.890Z,3.80
2023-03-24T16:49:16.753Z,5.45
2023-03-24T16:51:45.183Z,4.38
2023-03-24T16:54:12.604Z,4.45
2023-03-24T16:56:40.452Z,5.13
2023-03-24T16:59:09.080Z,5.03
2023-03-24T17:01:41.950Z,4.13
2023-03-24T17:04:17.773Z,3.92
2023-03-24T17:06:53.564Z,4.43
2023-03-24T17:09:21.986Z,6.28
2023-03-24T17:11:52.083Z,5.55
2023-03-24T17:14:19.568Z,6.65
2023-03-24T17:16:49.277Z,7.25
2023-03-24T17:19:19.087Z,5.20
2023-03-24T17:22:00.672Z,5.80
2023-03-24T17:24:29.426Z,4.97
2023-03-24T17:26:56.886Z,4.50
2023-03-24T17:29:24.274Z,4.93
2023-03-24T17:31:53.378Z,4.40
2023-03-24T17:34:22.184Z,5.03
2023-03-24T17:36:51.302Z,5.70
2023-03-24T17:39:20.379Z,7.20
2023-03-24T17:41:47.840Z,5.10
2023-03-24T17:44:15.575Z,6.85
2023-03-24T17:46:43.015Z,6.05
2023-03-24T17:49:10.479Z,9.30
2023-03-24T17:51:37.854Z,6.35
2023-03-24T17:54:08.420Z,8.57
2023-03-24T17:56:35.775Z,7.78
2023-03-24T17:59:03.632Z,9.45
2023-03-24T18:01:35.203Z,7.47
2023-03-24T18:04:02.560Z,7.75
2023-03-24T18:06:30.874Z,6.88
2023-03-24T18:08:58.542Z,5.82
2023-03-24T18:11:26.104Z,7.20
2023-03-24T18:13:53.617Z,6.03
2023-03-24T18:16:22.386Z,6.22
2023-03-24T18:18:51.208Z,6.15
2023-03-24T18:21:19.664Z,6.55
2023-03-24T18:23:48.600Z,6.72
2023-03-24T18:26:17.606Z,5.80
2023-03-24T18:28:46.110Z,6.97
2023-03-24T18:31:20.182Z,5.78
2023-03-24T18:33:48.968Z,6.72
2023-03-24T18:36:21.372Z,5.30
2023-03-24T18:38:49.387Z,5.13
2023-03-24T18:41:18.423Z,5.38
2023-03-24T18:43:48.305Z,5.70
2023-03-24T18:46:16.481Z,5.10
2023-03-24T18:48:44.405Z,4.55
2023-03-24T18:51:12.083Z,5.15
2023-03-24T18:53:39.437Z,5.85
2023-03-24T18:56:08.354Z,4.45
2023-03-24T18:58:38.173Z,4.00
2023-03-24T19:01:11.306Z,4.30
2023-03-24T19:03:41.066Z,6.10
2023-03-24T19:06:11.776Z,4.22
2023-03-24T19:08:42.189Z,4.00
2023-03-24T19:11:10.636Z,3.95
2023-03-24T19:13:37.944Z,3.97
2023-03-24T19:16:06.130Z,4.72
2023-03-24T19:18:33.508Z,5.53
2023-03-24T19:21:02.172Z,3.88
2023-03-24T19:23:30.627Z,8.85
2023-03-24T19:25:57.977Z,4.30
2023-03-24T19:28:29.113Z,3.65
2023-03-24T19:30:57.622Z,3.95
2023-03-24T19:33:25.692Z,3.53
2023-03-24T19:35:54.310Z,4.95
2023-03-24T19:38:24.152Z,3.65
2023-03-24T19:40:53.900Z,3.20
2023-03-24T19:43:22.993Z,3.55
2023-03-24T19:45:54.813Z,3.55
2023-03-24T19:48:23.263Z,3.80
2023-03-24T19:50:55.600Z,3.30
2023-03-24T19:53:27.093Z,3.65
2023-03-24T19:55:58.342Z,2.90
2023-03-24T19:58:26.330Z,3.03
2023-03-24T20:00:53.859Z,3.42
2023-03-24T20:03:21.688Z,4.55
2023-03-24T20:05:49.851Z,4.20
2023-03-24T20:08:19.331Z,4.88
2023-03-24T20:10:47.136Z,5.60
2023-03-24T20:13:14.417Z,7.00
2023-03-24T20:15:41.894Z,7.82
2023-03-24T20:18:10.835Z,8.20
2023-03-24T20:20:39.815Z,4.93
2023-03-24T20:23:09.610Z,4.05
2023-03-24T20:25:40.715Z,5.90
2023-03-24T20:28:08.377Z,4.30
2023-03-24T20:30:39.635Z,3.78
2023-03-24T20:33:09.992Z,3.63
2023-03-24T20:35:37.365Z,8.25
2023-03-24T20:38:04.966Z,6.38
2023-03-24T20:40:32.355Z,5.32
2023-03-24T20:43:00.011Z,5.72
2023-03-24T20:45:27.632Z,6.40
2023-03-24T20:47:55.205Z,5.30
2023-03-24T20:50:22.627Z,5.47
2023-03-24T20:52:50.002Z,5.18
2023-03-24T20:55:17.843Z,5.20
2023-03-24T20:57:45.222Z,5.60
2023-03-24T21:00:16.347Z,4.97
2023-03-24T21:02:44.081Z,5.60
2023-03-24T21:05:12.028Z,5.65
2023-03-24T21:07:43.660Z,5.93
2023-03-24T21:10:11.794Z,6.93
2023-03-24T21:12:53.126Z,7.22
2023-03-24T21:15:26.266Z,6.85
2023-03-24T21:17:54.353Z,7.15
2023-03-24T21:20:22.344Z,7.13
2023-03-24T21:22:56.155Z,7.47
2023-03-24T21:25:28.551Z,7.07
2023-03-24T21:27:56.914Z,8.23
2023-03-24T21:30:26.226Z,7.45
2023-03-24T21:32:55.532Z,8.07
2023-03-24T21:35:24.982Z,12.00
2023-03-24T21:37:54.157Z,10.55
2023-03-24T21:40:25.518Z,9.70
2023-03-24T21:42:56.416Z,8.35
2023-03-24T21:45:24.206Z,8.02
2023-03-24T21:47:54.960Z,7.88
2023-03-24T21:50:25.801Z,7.93
2023-03-24T21:52:54.758Z,8.90
2023-03-24T21:55:23.269Z,9.13
2023-03-24T21:57:52.044Z,8.65
2023-03-24T22:00:21.910Z,9.82
2023-03-24T22:02:52.680Z,9.77
2023-03-24T22:05:24.587Z,6.97
2023-03-24T22:07:52.938Z,7.45
2023-03-24T22:10:22.851Z,6.70
2023-03-24T22:12:51.637Z,7.07
2023-03-24T22:15:20.119Z,6.60
2023-03-24T22:17:47.766Z,6.97
2023-03-24T22:20:16.074Z,7.30
2023-03-24T22:22:43.678Z,6.30
2023-03-24T22:25:13.278Z,6.57
2023-03-24T22:27:40.848Z,5.70
2023-03-24T22:30:10.432Z,6.28
2023-03-24T22:32:38.456Z,6.03
2023-03-24T22:35:06.939Z,6.25
2023-03-24T22:37:34.976Z,5.35
2023-03-24T22:40:03.533Z,5.70
2023-03-24T22:42:31.321Z,5.65
2023-03-24T22:44:58.697Z,4.88
2023-03-24T22:47:27.492Z,5.20
2023-03-24T22:49:54.959Z,4.82
2023-03-24T22:52:22.402Z,4.57
2023-03-24T22:54:49.662Z,3.80
2023-03-24T22:57:18.794Z,3.08
2023-03-24T22:59:46.160Z,3.05
2023-03-24T23:02:13.857Z,3.13
2023-03-24T23:04:42.138Z,3.38
2023-03-24T23:07:10.437Z,3.10
2023-03-24T23:09:38.406Z,2.78
2023-03-24T23:12:06.242Z,2.70
2023-03-24T23:14:33.593Z,3.25
2023-03-24T23:17:01.859Z,2.72
2023-03-24T23:19:33.255Z,2.47
2023-03-24T23:22:00.763Z,2.60
2023-03-24T23:24:28.837Z,3.10
2023-03-24T23:26:56.296Z,2.53
2023-03-24T23:29:23.714Z,2.83
2023-03-24T23:31:51.019Z,2.63
2023-03-24T23:34:18.365Z,2.80
2023-03-24T23:36:50.056Z,3.08
2023-03-24T23:39:17.502Z,2.67
2023-03-24T23:41:46.376Z,2.72
2023-03-24T23:44:15.063Z,2.03
2023-03-24T23:46:42.464Z,2.83
2023-03-24T23:49:09.818Z,2.95
2023-03-24T23:51:37.208Z,3.00
2023-03-24T23:54:04.838Z,3.20
2023-03-24T23:56:37.161Z,3.65
2023-03-24T23:59:07.872Z,3.70
